Time;durP1;ratioP1;P1;durP2;ratioP2;P2;SDS_P1;SDS_P2;PMS_P1;PMS_P2;Temp;Humidity;BMP_temperature;BMP_pressure;BME280_temperature;BME280_humidity;BME280_pressure;Samples;Min_cycle;Max_cycle;Signal;HPM_P1;HPM_P2
2022/03/07 00:02:11;;;;;;;14.70;8.37;;;;;;;;;;5036668;28;20282;-73
2022/03/07 00:04:40;;;;;;;15.33;9.27;;;;;;;;;;5034577;28;20247;-73
2022/03/07 00:07:09;;;;;;;16.73;9.73;;;;;;;;;;5033691;28;20219;-73
2022/03/07 00:09:37;;;;;;;14.17;9.60;;;;;;;;;;5034080;28;20276;-73
2022/03/07 00:12:06;;;;;;;14.33;9.13;;;;;;;;;;5036734;28;20208;-73
2022/03/07 00:14:34;;;;;;;14.77;9.70;;;;;;;;;;5032364;28;20256;-73
2022/03/07 00:17:02;;;;;;;17.40;9.17;;;;;;;;;;5031272;28;20251;-73
2022/03/07 00:19:30;;;;;;;15.53;9.57;;;;;;;;;;5027680;28;20228;-73
2022/03/07 00:21:58;;;;;;;13.87;9.30;;;;;;;;;;5037398;28;20751;-73
2022/03/07 00:24:27;;;;;;;18.27;9.43;;;;;;;;;;5032097;28;20227;-73
2022/03/07 00:26:55;;;;;;;14.03;9.13;;;;;;;;;;5024854;28;20251;-73
2022/03/07 00:29:23;;;;;;;19.27;10.47;;;;;;;;;;5037031;28;20223;-73
2022/03/07 00:31:51;;;;;;;15.33;9.20;;;;;;;;;;5033541;28;20322;-73
2022/03/07 00:34:19;;;;;;;15.87;8.30;;;;;;;;;;5036306;28;20199;-73
2022/03/07 00:36:47;;;;;;;16.00;10.30;;;;;;;;;;5035134;28;20632;-73
2022/03/07 00:39:15;;;;;;;15.07;9.07;;;;;;;;;;5036929;28;20291;-73
2022/03/07 00:41:45;;;;;;;15.20;9.97;;;;;;;;;;5031549;28;20312;-72
2022/03/07 00:44:13;;;;;;;15.93;10.00;;;;;;;;;;5034097;28;20561;-73
2022/03/07 00:46:41;;;;;;;16.77;9.67;;;;;;;;;;5033181;28;20482;-72
2022/03/07 00:49:10;;;;;;;14.80;9.07;;;;;;;;;;5034168;28;20657;-73
2022/03/07 00:51:38;;;;;;;16.83;9.30;;;;;;;;;;5023939;28;20538;-73
2022/03/07 00:54:06;;;;;;;15.57;9.60;;;;;;;;;;5033585;28;20514;-72
2022/03/07 00:56:34;;;;;;;15.33;9.10;;;;;;;;;;5033587;28;20513;-73
2022/03/07 00:59:03;;;;;;;17.10;10.37;;;;;;;;;;5035603;28;20485;-72
2022/03/07 01:01:31;;;;;;;15.87;9.47;;;;;;;;;;5031889;28;20913;-72
2022/03/07 01:04:00;;;;;;;16.20;9.20;;;;;;;;;;5034294;28;20450;-72
2022/03/07 01:06:28;;;;;;;15.50;8.80;;;;;;;;;;5034681;28;20502;-72
2022/03/07 01:08:56;;;;;;;21.37;10.63;;;;;;;;;;5033773;28;20565;-73
2022/03/07 01:11:24;;;;;;;14.80;8.57;;;;;;;;;;5033705;28;20589;-73
2022/03/07 01:13:52;;;;;;;14.90;9.73;;;;;;;;;;5033426;28;20528;-72
2022/03/07 01:16:21;;;;;;;17.43;10.40;;;;;;;;;;5030072;28;20546;-75
2022/03/07 01:18:49;;;;;;;16.10;10.20;;;;;;;;;;5033552;28;20454;-75
2022/03/07 01:21:19;;;;;;;16.47;8.60;;;;;;;;;;5032389;28;20593;-76
2022/03/07 01:23:47;;;;;;;16.07;9.80;;;;;;;;;;5035446;28;20541;-75
2022/03/07 01:26:15;;;;;;;13.50;8.97;;;;;;;;;;5033125;28;20558;-75
2022/03/07 01:28:43;;;;;;;14.17;9.67;;;;;;;;;;5033335;28;21011;-75
2022/03/07 01:31:10;;;;;;;16.23;10.13;;;;;;;;;;5032407;28;20522;-75
2022/03/07 01:33:40;;;;;;;16.57;9.70;;;;;;;;;;5032525;28;20481;-75
2022/03/07 01:36:08;;;;;;;19.67;10.47;;;;;;;;;;5032280;28;20522;-75
2022/03/07 01:38:36;;;;;;;15.70;9.40;;;;;;;;;;5033476;28;20977;-75
2022/03/07 01:41:04;;;;;;;18.20;9.70;;;;;;;;;;5036431;28;20545;-75
2022/03/07 01:43:32;;;;;;;15.33;9.43;;;;;;;;;;5033464;28;20917;-75
2022/03/07 01:46:00;;;;;;;18.67;10.27;;;;;;;;;;5025926;28;20483;-75
2022/03/07 01:48:28;;;;;;;18.37;10.83;;;;;;;;;;5032149;28;20516;-76
2022/03/07 01:50:57;;;;;;;15.47;9.13;;;;;;;;;;5032533;28;20911;-75
2022/03/07 01:53:28;;;;;;;15.33;9.50;;;;;;;;;;5032588;28;20522;-75
2022/03/07 01:55:56;;;;;;;16.47;10.20;;;;;;;;;;5032575;28;21019;-75
2022/03/07 01:58:24;;;;;;;15.63;10.67;;;;;;;;;;5031536;28;20626;-75
2022/03/07 02:00:52;;;;;;;16.37;10.03;;;;;;;;;;5034995;28;21088;-75
2022/03/07 02:03:20;;;;;;;17.43;10.40;;;;;;;;;;5032752;28;20455;-75
2022/03/07 02:05:48;;;;;;;16.10;10.23;;;;;;;;;;5033492;28;20516;-75
2022/03/07 02:08:18;;;;;;;16.20;9.47;;;;;;;;;;5032899;28;20533;-75
2022/03/07 02:10:46;;;;;;;19.60;10.97;;;;;;;;;;5035295;28;20564;-75
2022/03/07 02:13:14;;;;;;;19.67;9.50;;;;;;;;;;5036564;28;20582;-75
2022/03/07 02:15:42;;;;;;;14.17;8.60;;;;;;;;;;5036426;28;20525;-75
2022/03/07 02:18:10;;;;;;;16.67;10.33;;;;;;;;;;5036403;28;20966;-75
2022/03/07 02:20:38;;;;;;;17.03;10.97;;;;;;;;;;5038567;28;20574;-75
2022/03/07 02:23:08;;;;;;;14.30;10.47;;;;;;;;;;5035951;28;20482;-75
2022/03/07 02:25:37;;;;;;;15.17;10.17;;;;;;;;;;5037472;28;20509;-76
2022/03/07 02:28:05;;;;;;;16.23;9.53;;;;;;;;;;5036264;28;20545;-75
2022/03/07 02:30:33;;;;;;;15.73;10.17;;;;;;;;;;5033430;28;20502;-75
2022/03/07 02:33:01;;;;;;;18.13;10.57;;;;;;;;;;5036456;28;20482;-75
2022/03/07 02:35:29;;;;;;;17.30;10.57;;;;;;;;;;5035424;28;20521;-75
2022/03/07 02:37:57;;;;;;;13.87;8.87;;;;;;;;;;5030619;28;20486;-75
2022/03/07 02:40:26;;;;;;;17.00;9.13;;;;;;;;;;5038859;28;20518;-75
2022/03/07 02:43:14;;;;;;;20.17;11.07;;;;;;;;;;5036185;28;20453;-75
2022/03/07 02:45:43;;;;;;;18.70;10.87;;;;;;;;;;5035031;28;20515;-75
2022/03/07 02:48:11;;;;;;;17.60;9.93;;;;;;;;;;5030660;28;21102;-75
2022/03/07 02:50:39;;;;;;;19.87;11.00;;;;;;;;;;5034323;28;20482;-75
2022/03/07 02:53:07;;;;;;;21.10;11.17;;;;;;;;;;5036260;28;20536;-75
2022/03/07 02:55:37;;;;;;;16.10;11.37;;;;;;;;;;5035228;28;20920;-75
2022/03/07 02:58:05;;;;;;;15.37;10.10;;;;;;;;;;5036330;28;20577;-75
2022/03/07 03:00:33;;;;;;;17.77;10.73;;;;;;;;;;5035441;28;20463;-75
2022/03/07 03:03:01;;;;;;;18.33;9.50;;;;;;;;;;5035733;28;20969;-75
2022/03/07 03:05:29;;;;;;;18.90;11.13;;;;;;;;;;5036839;28;20481;-75
2022/03/07 03:07:57;;;;;;;16.03;9.87;;;;;;;;;;5036233;28;20541;-76
2022/03/07 03:10:25;;;;;;;16.93;9.57;;;;;;;;;;5037928;28;20458;-75
2022/03/07 03:12:55;;;;;;;16.90;10.73;;;;;;;;;;5036002;28;20490;-74
2022/03/07 03:15:24;;;;;;;19.07;10.93;;;;;;;;;;5033699;28;20676;-75
2022/03/07 03:17:52;;;;;;;20.30;11.13;;;;;;;;;;5034493;28;20510;-75
2022/03/07 03:20:20;;;;;;;15.33;9.67;;;;;;;;;;5029583;28;20486;-75
2022/03/07 03:22:48;;;;;;;15.40;9.63;;;;;;;;;;5034633;28;20521;-75
2022/03/07 03:25:16;;;;;;;16.37;9.47;;;;;;;;;;5035271;28;20509;-75
2022/03/07 03:27:44;;;;;;;15.30;9.80;;;;;;;;;;5035033;28;20538;-75
2022/03/07 03:30:14;;;;;;;16.10;9.60;;;;;;;;;;5035083;28;20566;-75
2022/03/07 03:32:42;;;;;;;17.93;10.63;;;;;;;;;;5036033;28;20490;-75
2022/03/07 03:35:10;;;;;;;16.63;11.57;;;;;;;;;;5034637;28;20873;-75
2022/03/07 03:37:38;;;;;;;18.90;9.90;;;;;;;;;;5035274;28;20462;-75
2022/03/07 03:40:09;;;;;;;18.30;9.97;;;;;;;;;;5038619;28;20454;-74
2022/03/07 03:42:37;;;;;;;15.07;9.93;;;;;;;;;;5035997;28;21056;-75
2022/03/07 03:45:08;;;;;;;17.47;9.57;;;;;;;;;;5034395;28;20958;-75
2022/03/07 03:47:37;;;;;;;15.60;9.53;;;;;;;;;;5035666;28;20889;-75
2022/03/07 03:50:07;;;;;;;15.00;9.73;;;;;;;;;;5037645;28;20861;-75
2022/03/07 03:52:35;;;;;;;12.67;9.40;;;;;;;;;;5033037;28;20546;-75
2022/03/07 03:55:03;;;;;;;16.37;9.73;;;;;;;;;;5036634;28;20494;-75
2022/03/07 03:57:31;;;;;;;16.50;10.10;;;;;;;;;;5037755;28;20465;-75
2022/03/07 04:00:00;;;;;;;16.03;10.57;;;;;;;;;;5036212;28;20493;-75
2022/03/07 04:02:28;;;;;;;16.83;9.23;;;;;;;;;;5031639;28;21042;-75
2022/03/07 04:04:58;;;;;;;14.07;9.30;;;;;;;;;;5031439;28;20830;-75
2022/03/07 04:07:26;;;;;;;19.30;10.63;;;;;;;;;;5035244;28;20462;-75
2022/03/07 04:09:54;;;;;;;13.33;8.97;;;;;;;;;;5034182;28;20889;-75
2022/03/07 04:12:23;;;;;;;15.17;9.23;;;;;;;;;;5034885;28;20450;-75
2022/03/07 04:14:51;;;;;;;17.40;9.47;;;;;;;;;;5031536;28;20531;-75
2022/03/07 04:17:19;;;;;;;16.63;10.27;;;;;;;;;;5031620;28;20989;-75
2022/03/07 04:19:47;;;;;;;15.00;9.80;;;;;;;;;;5035138;28;20977;-75
2022/03/07 04:22:16;;;;;;;14.13;9.23;;;;;;;;;;5033929;28;20573;-74
2022/03/07 04:24:44;;;;;;;16.40;9.70;;;;;;;;;;5034136;28;20520;-75
2022/03/07 04:27:12;;;;;;;17.67;10.97;;;;;;;;;;5037068;28;21049;-75
2022/03/07 04:29:40;;;;;;;17.50;9.63;;;;;;;;;;5033782;28;20490;-75
2022/03/07 04:32:08;;;;;;;21.00;10.63;;;;;;;;;;5035708;28;20490;-75
2022/03/07 04:34:36;;;;;;;15.87;10.20;;;;;;;;;;5034370;28;20978;-75
2022/03/07 04:37:04;;;;;;;17.37;9.60;;;;;;;;;;5034067;28;20505;-75
2022/03/07 04:39:34;;;;;;;16.93;10.47;;;;;;;;;;5034540;28;20485;-75
2022/03/07 04:42:02;;;;;;;18.90;10.37;;;;;;;;;;5034160;28;20577;-75
2022/03/07 04:44:30;;;;;;;16.10;10.00;;;;;;;;;;5037368;28;20537;-75
2022/03/07 04:46:58;;;;;;;15.67;9.60;;;;;;;;;;5030975;28;20483;-75
2022/03/07 04:49:26;;;;;;;19.73;10.17;;;;;;;;;;5034395;28;20462;-75
2022/03/07 04:51:54;;;;;;;13.60;9.33;;;;;;;;;;5034907;28;20965;-75
2022/03/07 04:54:22;;;;;;;14.87;9.43;;;;;;;;;;5034101;28;20546;-75
2022/03/07 04:56:52;;;;;;;19.27;9.80;;;;;;;;;;5036189;28;20509;-75
2022/03/07 04:59:20;;;;;;;16.77;9.50;;;;;;;;;;5033286;28;20534;-74
2022/03/07 05:01:47;;;;;;;19.67;9.90;;;;;;;;;;5032927;28;20481;-75
2022/03/07 05:04:16;;;;;;;20.93;11.07;;;;;;;;;;5032986;28;20490;-75
2022/03/07 05:06:44;;;;;;;15.57;9.73;;;;;;;;;;5033717;28;20573;-75
2022/03/07 05:09:12;;;;;;;19.80;11.30;;;;;;;;;;5029799;28;20486;-75
2022/03/07 05:11:40;;;;;;;18.70;10.57;;;;;;;;;;5022749;28;20497;-75
2022/03/07 05:14:09;;;;;;;19.73;11.03;;;;;;;;;;5035524;28;20541;-75
2022/03/07 05:16:37;;;;;;;17.43;9.37;;;;;;;;;;5027948;28;20509;-75
2022/03/07 05:19:05;;;;;;;17.13;10.70;;;;;;;;;;5028948;28;20958;-75
2022/03/07 05:21:33;;;;;;;16.00;9.83;;;;;;;;;;5032620;28;20892;-75
2022/03/07 05:24:01;;;;;;;15.77;9.53;;;;;;;;;;5033976;28;20489;-75
2022/03/07 05:26:29;;;;;;;19.03;10.20;;;;;;;;;;5033657;28;20525;-65
2022/03/07 05:28:57;;;;;;;12.97;8.57;;;;;;;;;;5033898;28;20489;-74
2022/03/07 05:31:26;;;;;;;14.57;9.50;;;;;;;;;;5031937;28;20558;-74
2022/03/07 05:33:54;;;;;;;15.43;9.93;;;;;;;;;;5031848;28;20525;-73
2022/03/07 05:36:23;;;;;;;16.77;9.33;;;;;;;;;;5027809;28;20907;-73
2022/03/07 05:38:51;;;;;;;15.30;10.10;;;;;;;;;;5028547;28;20486;-73
2022/03/07 05:41:19;;;;;;;18.90;10.80;;;;;;;;;;5028415;28;20455;-73
2022/03/07 05:43:47;;;;;;;22.27;11.03;;;;;;;;;;5031794;28;20524;-72
2022/03/07 05:46:15;;;;;;;15.57;9.70;;;;;;;;;;5026755;28;20506;-74
2022/03/07 05:48:44;;;;;;;18.47;9.87;;;;;;;;;;5028594;28;20458;-74
2022/03/07 05:51:12;;;;;;;16.03;9.47;;;;;;;;;;5030085;28;20529;-74
2022/03/07 05:53:40;;;;;;;15.60;9.63;;;;;;;;;;5032517;28;20463;-74
2022/03/07 05:56:09;;;;;;;16.10;9.70;;;;;;;;;;5033205;28;20564;-74
2022/03/07 05:58:37;;;;;;;18.07;10.23;;;;;;;;;;5034642;28;20458;-75
2022/03/07 06:01:04;;;;;;;15.13;10.10;;;;;;;;;;5032223;28;20486;-74
2022/03/07 06:03:33;;;;;;;16.13;10.63;;;;;;;;;;5033110;28;20486;-74
2022/03/07 06:06:02;;;;;;;17.03;10.30;;;;;;;;;;5034209;28;20478;-73
2022/03/07 06:08:30;;;;;;;18.20;10.47;;;;;;;;;;5033096;28;20458;-74
2022/03/07 06:10:58;;;;;;;17.97;9.83;;;;;;;;;;5033896;28;20542;-74
2022/03/07 06:13:26;;;;;;;19.93;10.77;;;;;;;;;;5032727;28;20509;-74
2022/03/07 06:15:54;;;;;;;16.70;9.17;;;;;;;;;;5030487;28;20562;-74
2022/03/07 06:18:22;;;;;;;22.70;10.33;;;;;;;;;;5035684;28;21033;-74
2022/03/07 06:20:50;;;;;;;24.37;11.20;;;;;;;;;;5034708;28;20497;-74
2022/03/07 06:23:20;;;;;;;41.43;11.77;;;;;;;;;;5031039;28;20570;-74
2022/03/07 06:25:48;;;;;;;69.77;12.93;;;;;;;;;;5034059;28;20513;-74
2022/03/07 06:28:16;;;;;;;17.87;9.80;;;;;;;;;;5034296;28;20537;-74
2022/03/07 06:30:46;;;;;;;14.43;9.60;;;;;;;;;;5033491;28;20537;-74
2022/03/07 06:33:14;;;;;;;17.50;10.27;;;;;;;;;;5027027;28;20537;-74
2022/03/07 06:35:42;;;;;;;17.30;9.93;;;;;;;;;;5030385;28;20510;-75
2022/03/07 06:38:10;;;;;;;15.73;10.30;;;;;;;;;;5030985;28;20538;-74
2022/03/07 06:40:40;;;;;;;18.53;9.93;;;;;;;;;;5029193;28;20546;-75
2022/03/07 06:43:08;;;;;;;17.77;11.13;;;;;;;;;;5031404;28;20514;-73
2022/03/07 06:45:36;;;;;;;18.20;10.03;;;;;;;;;;5029486;28;20600;-73
2022/03/07 06:48:04;;;;;;;18.60;12.33;;;;;;;;;;5026493;28;20522;-72
2022/03/07 06:50:33;;;;;;;16.53;10.80;;;;;;;;;;5032291;28;20531;-70
2022/03/07 06:53:01;;;;;;;21.97;11.37;;;;;;;;;;5027710;28;20574;-73
2022/03/07 06:55:29;;;;;;;16.93;11.13;;;;;;;;;;5031053;28;20482;-75
2022/03/07 06:57:58;;;;;;;15.93;10.50;;;;;;;;;;5035491;28;20541;-75
2022/03/07 07:00:26;;;;;;;14.20;9.70;;;;;;;;;;5036078;28;20898;-75
2022/03/07 07:02:54;;;;;;;21.10;11.37;;;;;;;;;;5032092;28;20902;-75
2022/03/07 07:05:23;;;;;;;15.53;10.10;;;;;;;;;;5032939;28;20544;-75
2022/03/07 07:07:51;;;;;;;14.83;9.60;;;;;;;;;;5032401;28;20525;-75
2022/03/07 07:10:19;;;;;;;16.10;10.50;;;;;;;;;;5033355;28;20486;-74
2022/03/07 07:12:48;;;;;;;19.87;11.07;;;;;;;;;;5034788;28;20520;-75
2022/03/07 07:15:18;;;;;;;18.57;10.73;;;;;;;;;;5032535;28;21080;-75
2022/03/07 07:17:46;;;;;;;16.67;9.63;;;;;;;;;;5033821;28;21021;-75
2022/03/07 07:20:14;;;;;;;17.73;10.67;;;;;;;;;;5034180;28;20489;-75
2022/03/07 07:22:43;;;;;;;17.40;10.33;;;;;;;;;;5035334;28;20493;-75
2022/03/07 07:25:11;;;;;;;16.73;10.57;;;;;;;;;;5029741;28;20466;-75
2022/03/07 07:27:39;;;;;;;15.57;9.57;;;;;;;;;;5035226;28;20474;-75
2022/03/07 07:30:09;;;;;;;17.17;10.80;;;;;;;;;;5037858;28;20516;-75
2022/03/07 07:32:39;;;;;;;14.83;9.23;;;;;;;;;;5032206;28;20458;-74
2022/03/07 07:35:08;;;;;;;17.13;10.23;;;;;;;;;;5035103;28;20451;-75
2022/03/07 07:37:37;;;;;;;14.80;9.37;;;;;;;;;;5034421;28;20516;-75
2022/03/07 07:40:07;;;;;;;16.97;11.17;;;;;;;;;;5035845;28;20466;-75
2022/03/07 07:42:35;;;;;;;18.20;10.50;;;;;;;;;;5033080;28;20467;-75
2022/03/07 07:45:04;;;;;;;14.27;9.10;;;;;;;;;;5037310;28;20482;-75
2022/03/07 07:47:32;;;;;;;16.33;10.90;;;;;;;;;;5032302;28;20479;-74
2022/03/07 07:50:01;;;;;;;17.90;11.20;;;;;;;;;;5034281;28;20542;-75
2022/03/07 07:52:29;;;;;;;19.77;9.93;;;;;;;;;;5032423;28;20455;-75
2022/03/07 07:54:57;;;;;;;17.07;9.73;;;;;;;;;;5034265;28;20879;-74
2022/03/07 07:57:25;;;;;;;18.33;11.63;;;;;;;;;;5035531;28;20509;-75
2022/03/07 07:59:53;;;;;;;17.60;11.40;;;;;;;;;;5033098;28;20491;-75
2022/03/07 08:02:41;;;;;;;18.60;10.23;;;;;;;;;;5034975;28;20458;-75
2022/03/07 08:05:11;;;;;;;13.63;9.27;;;;;;;;;;5037938;28;20486;-75
2022/03/07 08:07:41;;;;;;;12.93;9.43;;;;;;;;;;5033865;28;20527;-75
2022/03/07 08:10:09;;;;;;;15.33;9.73;;;;;;;;;;5034120;28;20465;-75
2022/03/07 08:12:38;;;;;;;16.70;9.90;;;;;;;;;;5034092;28;20493;-73
2022/03/07 08:15:11;;;;;;;22.70;10.73;;;;;;;;;;5034129;28;20454;-73
2022/03/07 08:17:41;;;;;;;17.27;9.93;;;;;;;;;;5036855;28;20454;-74
2022/03/07 08:20:09;;;;;;;15.37;9.80;;;;;;;;;;5033711;28;20609;-73
2022/03/07 08:22:39;;;;;;;15.20;10.07;;;;;;;;;;5034175;28;20962;-73
2022/03/07 08:25:11;;;;;;;23.17;11.73;;;;;;;;;;5033888;28;20534;-72
2022/03/07 08:27:40;;;;;;;17.03;10.27;;;;;;;;;;5037184;28;20458;-73
2022/03/07 08:30:09;;;;;;;16.00;9.70;;;;;;;;;;5033887;28;20454;-72
2022/03/07 08:32:38;;;;;;;15.53;9.60;;;;;;;;;;5034162;28;20462;-72
2022/03/07 08:35:07;;;;;;;13.40;9.47;;;;;;;;;;5034310;28;20462;-73
2022/03/07 08:37:43;;;;;;;18.63;10.57;;;;;;;;;;5033041;28;20490;-72
2022/03/07 08:40:11;;;;;;;18.27;9.77;;;;;;;;;;5037382;28;20466;-73
2022/03/07 08:42:40;;;;;;;16.90;10.33;;;;;;;;;;5032283;28;20985;-74
2022/03/07 08:45:09;;;;;;;15.70;10.50;;;;;;;;;;5036848;28;20509;-72
2022/03/07 08:47:38;;;;;;;21.13;9.77;;;;;;;;;;5037158;28;20886;-70
2022/03/07 08:50:06;;;;;;;15.37;9.83;;;;;;;;;;5027729;28;20462;-70
2022/03/07 08:52:34;;;;;;;15.93;10.03;;;;;;;;;;5026191;28;20470;-69
2022/03/07 08:55:04;;;;;;;17.03;9.83;;;;;;;;;;5031686;28;20533;-70
2022/03/07 08:57:34;;;;;;;22.53;10.70;;;;;;;;;;5033026;28;20478;-70
2022/03/07 09:00:02;;;;;;;15.63;9.57;;;;;;;;;;5035338;28;20462;-68
2022/03/07 09:02:30;;;;;;;16.97;10.40;;;;;;;;;;5034905;28;20489;-71
2022/03/07 09:04:58;;;;;;;21.00;11.20;;;;;;;;;;5030033;28;20487;-70
2022/03/07 09:07:28;;;;;;;16.07;10.03;;;;;;;;;;5035972;28;20493;-72
2022/03/07 09:09:56;;;;;;;17.87;10.57;;;;;;;;;;5033036;28;21008;-72
2022/03/07 09:12:27;;;;;;;18.47;11.00;;;;;;;;;;5030986;28;20869;-72
2022/03/07 09:14:56;;;;;;;17.23;10.60;;;;;;;;;;5033433;28;20481;-71
2022/03/07 09:17:24;;;;;;;15.57;9.83;;;;;;;;;;5031727;28;20490;-72
2022/03/07 09:19:52;;;;;;;17.37;10.20;;;;;;;;;;5031862;28;20896;-72
2022/03/07 09:22:20;;;;;;;21.40;10.90;;;;;;;;;;5031749;28;20526;-72
2022/03/07 09:24:48;;;;;;;18.87;10.23;;;;;;;;;;5033127;28;20517;-72
2022/03/07 09:27:16;;;;;;;14.67;10.60;;;;;;;;;;5032323;28;20474;-71
2022/03/07 09:29:49;;;;;;;17.23;10.50;;;;;;;;;;5033647;28;20465;-71
2022/03/07 09:32:18;;;;;;;15.00;10.70;;;;;;;;;;5032272;28;20892;-70
2022/03/07 09:34:46;;;;;;;17.67;10.27;;;;;;;;;;5032982;28;20538;-72
2022/03/07 09:37:14;;;;;;;17.83;11.70;;;;;;;;;;5033951;28;20498;-72
2022/03/07 09:39:42;;;;;;;18.23;11.10;;;;;;;;;;5034970;28;20517;-71
2022/03/07 09:42:10;;;;;;;17.17;10.40;;;;;;;;;;5034457;28;20515;-71
2022/03/07 09:44:38;;;;;;;19.20;11.13;;;;;;;;;;5032420;28;20530;-69
2022/03/07 09:47:09;;;;;;;18.13;11.03;;;;;;;;;;5033325;28;20534;-70
2022/03/07 09:49:38;;;;;;;14.00;10.17;;;;;;;;;;5032246;28;20966;-70
2022/03/07 09:52:06;;;;;;;20.27;11.83;;;;;;;;;;5033046;28;20877;-71
2022/03/07 09:54:34;;;;;;;19.43;12.07;;;;;;;;;;5027668;28;20489;-72
2022/03/07 09:57:02;;;;;;;19.20;11.03;;;;;;;;;;5032719;28;20509;-71
2022/03/07 09:59:31;;;;;;;19.87;10.67;;;;;;;;;;5034219;28;20493;-72
2022/03/07 10:02:01;;;;;;;17.57;11.27;;;;;;;;;;5033457;28;20465;-72
2022/03/07 10:04:31;;;;;;;16.70;10.77;;;;;;;;;;5029487;28;20974;-70
2022/03/07 10:07:02;;;;;;;19.63;11.07;;;;;;;;;;5025889;28;20474;-71
2022/03/07 10:09:30;;;;;;;18.10;11.53;;;;;;;;;;5031994;28;20466;-71
2022/03/07 10:12:00;;;;;;;18.17;10.93;;;;;;;;;;5032579;28;20466;-72
2022/03/07 10:14:34;;;;;;;17.83;11.33;;;;;;;;;;5031814;28;20990;-72
2022/03/07 10:17:02;;;;;;;20.17;11.27;;;;;;;;;;5030039;28;20517;-72
2022/03/07 10:19:32;;;;;;;17.40;11.30;;;;;;;;;;5035852;28;20454;-69
2022/03/07 10:22:01;;;;;;;20.50;11.90;;;;;;;;;;5032630;28;20525;-69
2022/03/07 10:24:33;;;;;;;18.23;12.13;;;;;;;;;;5033311;28;20504;-69
2022/03/07 10:27:02;;;;;;;20.77;12.17;;;;;;;;;;5026932;28;20505;-70
2022/03/07 10:29:30;;;;;;;24.97;12.70;;;;;;;;;;5032533;28;20459;-69
2022/03/07 10:31:58;;;;;;;22.90;12.77;;;;;;;;;;5034267;28;20454;-70
2022/03/07 10:34:28;;;;;;;22.27;12.67;;;;;;;;;;5035718;28;20502;-69
2022/03/07 10:36:57;;;;;;;18.77;11.90;;;;;;;;;;5033434;28;20477;-71
2022/03/07 10:39:26;;;;;;;17.73;11.43;;;;;;;;;;5030822;28;20461;-71
2022/03/07 10:41:55;;;;;;;20.80;12.20;;;;;;;;;;5031498;28;20487;-72
2022/03/07 10:44:27;;;;;;;17.40;11.90;;;;;;;;;;5034521;28;20518;-72
2022/03/07 10:47:05;;;;;;;23.53;13.20;;;;;;;;;;5033831;28;20504;-72
2022/03/07 10:49:34;;;;;;;21.33;12.50;;;;;;;;;;5034284;28;20458;-71
2022/03/07 10:52:04;;;;;;;18.87;12.37;;;;;;;;;;5033805;28;20482;-72
2022/03/07 10:54:36;;;;;;;18.17;11.23;;;;;;;;;;5036971;28;20537;-73
2022/03/07 10:57:07;;;;;;;25.13;12.40;;;;;;;;;;5033825;28;20306;-73
2022/03/07 10:59:36;;;;;;;18.77;12.30;;;;;;;;;;5035921;28;20227;-72
2022/03/07 11:02:09;;;;;;;22.27;13.60;;;;;;;;;;5035349;28;20562;-74
2022/03/07 11:04:38;;;;;;;18.17;13.07;;;;;;;;;;5033900;28;20214;-71
2022/03/07 11:07:09;;;;;;;21.60;13.30;;;;;;;;;;5032523;28;20248;-73
2022/03/07 11:09:38;;;;;;;22.20;12.77;;;;;;;;;;5035653;28;20206;-74
2022/03/07 11:12:06;;;;;;;20.03;12.63;;;;;;;;;;5034146;28;20762;-74
2022/03/07 11:14:36;;;;;;;25.50;13.33;;;;;;;;;;5035393;28;20262;-75
2022/03/07 11:17:05;;;;;;;17.03;12.07;;;;;;;;;;5031460;28;20220;-73
2022/03/07 11:19:33;;;;;;;21.00;12.23;;;;;;;;;;5029959;28;20208;-74
2022/03/07 11:22:05;;;;;;;22.77;13.83;;;;;;;;;;5037542;28;20231;-75
2022/03/07 11:24:36;;;;;;;20.27;13.30;;;;;;;;;;5030988;28;20239;-75
2022/03/07 11:27:04;;;;;;;20.30;13.10;;;;;;;;;;5031767;28;20260;-77
2022/03/07 11:29:34;;;;;;;22.03;12.70;;;;;;;;;;5029423;28;20291;-75
2022/03/07 11:32:03;;;;;;;21.47;13.13;;;;;;;;;;5035733;28;20500;-75
2022/03/07 11:34:31;;;;;;;20.10;12.43;;;;;;;;;;5034711;28;20705;-74
2022/03/07 11:37:00;;;;;;;22.43;13.90;;;;;;;;;;5032777;28;20228;-74
2022/03/07 11:39:32;;;;;;;21.60;12.63;;;;;;;;;;5031788;28;20533;-73
2022/03/07 11:42:12;;;;;;;18.90;13.57;;;;;;;;;;5031299;28;20482;-72
2022/03/07 11:44:42;;;;;;;23.13;12.60;;;;;;;;;;5036043;28;20482;-73
2022/03/07 11:47:11;;;;;;;22.30;14.20;;;;;;;;;;5036611;28;20498;-72
2022/03/07 11:49:39;;;;;;;21.80;13.43;;;;;;;;;;5036484;28;20499;-75
2022/03/07 11:52:09;;;;;;;21.53;12.87;;;;;;;;;;5036172;28;20481;-75
2022/03/07 11:54:50;;;;;;;29.77;13.60;;;;;;;;;;5034382;28;21032;-74
2022/03/07 11:57:31;;;;;;;30.43;13.70;;;;;;;;;;5035684;28;20978;-73
2022/03/07 12:00:10;;;;;;;23.10;14.40;;;;;;;;;;5034266;28;20237;-74
2022/03/07 12:02:41;;;;;;;24.73;13.60;;;;;;;;;;5035358;28;20524;-74
2022/03/07 12:05:19;;;;;;;19.43;12.83;;;;;;;;;;5035031;28;20541;-74
2022/03/07 12:07:48;;;;;;;22.97;12.93;;;;;;;;;;5034392;28;20478;-74
2022/03/07 12:10:16;;;;;;;23.80;14.17;;;;;;;;;;5038192;28;20791;-73
2022/03/07 12:12:46;;;;;;;26.30;14.40;;;;;;;;;;5037211;28;20513;-74
2022/03/07 12:15:43;;;;;;;19.40;13.30;;;;;;;;;;5032582;28;20538;-74
2022/03/07 12:18:11;;;;;;;19.20;13.77;;;;;;;;;;5034911;28;20199;-74
2022/03/07 12:20:52;;;;;;;23.37;14.47;;;;;;;;;;5037442;28;20533;-73
2022/03/07 12:23:21;;;;;;;23.27;14.03;;;;;;;;;;5035301;28;20458;-72
2022/03/07 12:25:56;;;;;;;21.07;13.83;;;;;;;;;;5037275;28;20513;-73
2022/03/07 12:28:29;;;;;;;19.43;12.93;;;;;;;;;;5037595;28;20449;-73
2022/03/07 12:30:57;;;;;;;22.67;12.73;;;;;;;;;;5035388;28;20536;-74
2022/03/07 12:33:26;;;;;;;20.93;12.43;;;;;;;;;;5035450;28;20482;-73
2022/03/07 12:36:01;;;;;;;26.33;15.57;;;;;;;;;;5034285;28;20212;-74
2022/03/07 12:38:30;;;;;;;21.53;14.13;;;;;;;;;;5037326;28;20200;-73
2022/03/07 12:40:58;;;;;;;20.80;13.80;;;;;;;;;;5037000;28;20701;-74
2022/03/07 12:43:26;;;;;;;21.33;13.43;;;;;;;;;;5037172;28;20200;-73
2022/03/07 12:45:56;;;;;;;19.40;13.10;;;;;;;;;;5033756;28;20742;-73
2022/03/07 12:48:36;;;;;;;20.93;13.73;;;;;;;;;;5034308;28;20218;-74
2022/03/07 12:51:06;;;;;;;19.80;13.00;;;;;;;;;;5037552;28;20750;-74
2022/03/07 12:53:34;;;;;;;21.37;14.00;;;;;;;;;;5030782;28;20254;-73
2022/03/07 12:56:03;;;;;;;20.60;12.87;;;;;;;;;;5033804;28;20894;-73
2022/03/07 12:58:31;;;;;;;23.07;14.47;;;;;;;;;;5035371;28;20639;-73
2022/03/07 13:01:02;;;;;;;26.33;14.37;;;;;;;;;;5033818;28;20537;-73
2022/03/07 13:03:37;;;;;;;23.73;15.33;;;;;;;;;;5032273;28;20486;-73
2022/03/07 13:06:05;;;;;;;26.23;14.17;;;;;;;;;;5034381;28;20288;-73
2022/03/07 13:08:33;;;;;;;21.17;14.70;;;;;;;;;;5036154;28;20625;-74
2022/03/07 13:11:01;;;;;;;22.17;14.90;;;;;;;;;;5034190;28;20237;-74
2022/03/07 13:13:29;;;;;;;24.13;14.33;;;;;;;;;;5034240;28;20594;-73
2022/03/07 13:15:58;;;;;;;21.53;13.03;;;;;;;;;;5033197;28;20505;-74
2022/03/07 13:18:56;;;;;;;19.60;13.17;;;;;;;;;;5036038;28;20445;-73
2022/03/07 13:21:24;;;;;;;26.20;13.73;;;;;;;;;;5035780;28;20235;-73
2022/03/07 13:23:52;;;;;;;22.23;12.67;;;;;;;;;;5034090;28;20454;-74
2022/03/07 13:26:23;;;;;;;21.83;13.80;;;;;;;;;;5028392;28;20577;-74
2022/03/07 13:29:02;;;;;;;22.03;13.27;;;;;;;;;;5031684;28;20537;-74
2022/03/07 13:31:40;;;;;;;20.90;13.07;;;;;;;;;;5033148;28;20500;-74
2022/03/07 13:34:09;;;;;;;21.57;13.83;;;;;;;;;;5034760;28;20512;-74
2022/03/07 13:36:41;;;;;;;20.87;12.67;;;;;;;;;;5031521;28;20497;-74
2022/03/07 13:39:23;;;;;;;21.33;13.43;;;;;;;;;;5034345;28;20960;-74
2022/03/07 13:41:52;;;;;;;24.60;14.40;;;;;;;;;;5035578;28;20458;-74
2022/03/07 13:44:21;;;;;;;17.83;12.90;;;;;;;;;;5023342;28;20523;-74
2022/03/07 13:47:10;;;;;;;25.10;15.03;;;;;;;;;;5028978;28;20227;-74
2022/03/07 13:49:44;;;;;;;30.07;14.40;;;;;;;;;;5028155;28;20470;-74
2022/03/07 13:52:13;;;;;;;24.33;14.00;;;;;;;;;;5032261;28;20282;-74
2022/03/07 13:54:41;;;;;;;24.70;14.80;;;;;;;;;;5034096;28;20490;-73
2022/03/07 13:57:30;;;;;;;25.73;13.63;;;;;;;;;;5033897;28;20527;-74
2022/03/07 14:00:00;;;;;;;25.37;13.93;;;;;;;;;;5035215;28;20204;-73
2022/03/07 14:02:30;;;;;;;21.20;13.70;;;;;;;;;;5033314;28;20207;-67
2022/03/07 14:05:01;;;;;;;20.67;13.43;;;;;;;;;;5035136;28;20457;-68
2022/03/07 14:07:30;;;;;;;23.83;13.47;;;;;;;;;;5030637;28;20490;-68
2022/03/07 14:10:05;;;;;;;21.17;13.87;;;;;;;;;;5030205;28;20687;-68
2022/03/07 14:12:34;;;;;;;22.63;13.53;;;;;;;;;;5029146;28;20298;-68
2022/03/07 14:15:26;;;;;;;20.30;13.23;;;;;;;;;;5024274;28;20224;-68
2022/03/07 14:17:58;;;;;;;22.83;13.47;;;;;;;;;;5026096;28;20535;-68
2022/03/07 14:20:28;;;;;;;22.20;14.17;;;;;;;;;;5030807;28;20211;-68
2022/03/07 14:22:56;;;;;;;22.77;13.40;;;;;;;;;;5033185;28;20231;-68
2022/03/07 14:25:24;;;;;;;23.33;14.47;;;;;;;;;;5028267;28;20589;-72
2022/03/07 14:27:53;;;;;;;22.87;12.80;;;;;;;;;;5034815;28;20258;-71
2022/03/07 14:37:18;;;;;;;24.17;14.27;;;;;;;;;;5031046;28;20955;-68
2022/03/07 14:39:46;;;;;;;23.47;14.87;;;;;;;;;;5030559;28;20235;-67
2022/03/07 14:42:14;;;;;;;20.43;13.87;;;;;;;;;;5033953;28;20238;-67